This is the latest recevied weather packets stored in our database for station/object W8CWV-13. If no packets are shown the sender has not sent any weather packets the latest 10 day(s).
| Time | Temp. | Humidity | Pressure | Rain* | Wind** | Luminosity | Snow |
|---|---|---|---|---|---|---|---|
| 1777837836 | 18.33° C | 100% | 1022.6 hPa | - | - | - | - |
| 1777837266 | 19.44° C | 100% | 1022.4 hPa | - | - | - | - |
| 1777836688 | 19.44° C | 100% | 1022.4 hPa | - | - | - | - |
| 1777836117 | 17.78° C | 100% | 1022.9 hPa | - | - | - | - |
| 1777835543 | 18.33° C | 100% | 1022.9 hPa | - | - | - | - |
| 1777834972 | 18.33° C | 100% | 1023.3 hPa | - | - | - | - |
| 1777834400 | 17.78° C | 100% | 1023.3 hPa | - | - | - | - |
| 1777833828 | 20° C | 100% | 1023 hPa | - | - | - | - |
| 1777833256 | 18.33° C | 100% | 1023.3 hPa | - | - | - | - |
| 1777832683 | 16.67° C | 100% | 1023.7 hPa | - | - | - | - |
| 1777832110 | 16.67° C | 100% | 1023.8 hPa | - | - | - | - |
| 1777831534 | 16.67° C | 100% | 1023.7 hPa | - | - | - | - |
| 1777830968 | 17.22° C | 100% | 1023.9 hPa | - | - | - | - |
| 1777830390 | 16.67° C | 100% | 1024.2 hPa | - | - | - | - |
| 1777829813 | 16.11° C | 100% | 1024 hPa | - | - | - | - |
| 1777829242 | 16.11° C | 100% | 1024.3 hPa | - | - | - | - |
| 1777828678 | 16.67° C | 100% | 1024.2 hPa | - | - | - | - |
| 1777828095 | 16.11° C | 100% | 1024.2 hPa | - | - | - | - |
| 1777827522 | 15.56° C | 100% | 1024.4 hPa | - | - | - | - |
| 1777826951 | 16.67° C | 100% | 1024.4 hPa | - | - | - | - |
| 1777826372 | 16.11° C | 100% | 1024.3 hPa | - | - | - | - |
| 1777825802 | 16.11° C | 100% | 1024.5 hPa | - | - | - | - |
| 1777824654 | 16.67° C | 100% | 1024.6 hPa | - | - | - | - |
| 1777824074 | 15.56° C | 100% | 1024.9 hPa | - | - | - | - |
| 1777823501 | 16.11° C | 100% | 1024.7 hPa | - | - | - | - |
* Rain since midnight (hover to see other rain measurements)
** Current wind speed in m/s (hover to see current wind gust speed)